Time;durP1;ratioP1;P1;durP2;ratioP2;P2;SDS_P1;SDS_P2;PMS_P1;PMS_P2;Temp;Humidity;BMP_temperature;BMP_pressure;BME280_temperature;BME280_humidity;BME280_pressure;Samples;Min_cycle;Max_cycle;Signal;HPM_P1;HPM_P2
2023/06/03 00:00:20;;;;;;;2.28;1.83;;;;;;;20.23;46.47;102445.59;4985141;28;20049;-83
2023/06/03 00:02:47;;;;;;;1.92;1.45;;;;;;;20.17;46.66;102441.72;4986473;28;20076;-83
2023/06/03 00:05:17;;;;;;;2.10;1.50;;;;;;;20.15;46.53;102435.75;4978579;28;20435;-83
2023/06/03 00:07:43;;;;;;;1.75;1.50;;;;;;;20.18;46.71;102445.22;4995856;28;20037;-83
2023/06/03 00:10:09;;;;;;;2.55;1.80;;;;;;;20.11;46.48;102433.53;4965109;28;20034;-84
2023/06/03 00:12:35;;;;;;;3.35;2.28;;;;;;;20.03;46.60;102431.59;5002444;28;20129;-83
2023/06/03 00:15:00;;;;;;;3.05;1.90;;;;;;;19.97;46.69;102421.59;4997994;28;20054;-84
2023/06/03 00:17:27;;;;;;;2.42;1.90;;;;;;;20.18;46.45;102440.75;5006165;28;20045;-84
2023/06/03 00:19:54;;;;;;;2.47;1.73;;;;;;;20.12;46.51;102436.03;5013358;28;20033;-84
2023/06/03 00:22:21;;;;;;;2.08;1.73;;;;;;;20.02;46.48;102427.28;5015427;28;20048;-84
2023/06/03 00:24:47;;;;;;;2.28;1.98;;;;;;;20.16;46.60;102449.81;4987324;28;20046;-84
2023/06/03 00:27:14;;;;;;;2.42;1.30;;;;;;;20.12;46.67;102445.78;4996346;28;20042;-83
2023/06/03 00:29:39;;;;;;;2.80;2.08;;;;;;;19.95;46.60;102415.63;4980795;28;20044;-84
2023/06/03 00:32:05;;;;;;;1.67;1.42;;;;;;;20.08;46.53;102444.38;5008274;28;20025;-84
2023/06/03 00:34:31;;;;;;;2.55;1.75;;;;;;;20.09;46.69;102443.41;4992021;28;20042;-84
2023/06/03 00:36:56;;;;;;;1.90;1.67;;;;;;;20.04;46.67;102435.06;4998147;28;20050;-84
2023/06/03 00:39:22;;;;;;;2.35;1.67;;;;;;;20.07;46.70;102451.47;4973819;28;20049;-84
2023/06/03 00:41:48;;;;;;;2.83;1.50;;;;;;;20.04;46.52;102449.13;4998006;28;20035;-83
2023/06/03 00:44:14;;;;;;;1.85;1.45;;;;;;;20.08;46.49;102442.56;4976661;28;20247;-83
2023/06/03 00:46:41;;;;;;;2.72;1.50;;;;;;;20.03;46.69;102436.06;4977311;28;20619;-84
2023/06/03 00:49:07;;;;;;;1.92;1.52;;;;;;;19.95;46.86;102434.13;4986470;28;20039;-83
2023/06/03 00:51:35;;;;;;;1.60;1.50;;;;;;;20.07;46.66;102448.00;4982888;28;20030;-83
2023/06/03 00:54:01;;;;;;;1.88;1.55;;;;;;;19.88;46.60;102417.16;4992558;28;20045;-84
2023/06/03 00:56:27;;;;;;;2.97;1.70;;;;;;;20.02;46.48;102442.31;4963595;28;20069;-84
2023/06/03 00:58:53;;;;;;;2.17;1.70;;;;;;;19.95;46.66;102430.66;4999951;28;20413;-83
2023/06/03 01:01:19;;;;;;;2.20;1.83;;;;;;;19.95;46.62;102434.13;4998294;28;20039;-84
2023/06/03 01:03:47;;;;;;;2.13;1.60;;;;;;;19.96;46.75;102443.72;4965389;28;20124;-85
2023/06/03 01:06:17;;;;;;;1.92;1.70;;;;;;;20.00;46.65;102442.47;4984370;28;20042;-83
2023/06/03 01:09:04;;;;;;;2.15;1.42;;;;;;;20.05;46.79;102461.38;4979843;28;20045;-84
2023/06/03 01:11:52;;;;;;;2.08;1.30;;;;;;;19.96;46.62;102440.25;5014963;28;21242;-84
2023/06/03 01:14:24;;;;;;;3.05;1.50;;;;;;;20.03;46.68;102455.41;4994665;28;20034;-84
2023/06/03 01:16:52;;;;;;;2.85;1.55;;;;;;;19.88;46.82;102443.59;4980191;28;20594;-84
2023/06/03 01:19:30;;;;;;;1.85;1.55;;;;;;;20.02;46.78;102455.53;4998807;28;20052;-84
2023/06/03 01:22:00;;;;;;;1.42;1.33;;;;;;;19.92;46.78;102437.03;4995453;28;20056;-84
2023/06/03 01:24:26;;;;;;;1.92;1.40;;;;;;;19.84;46.70;102439.56;4996496;28;20069;-84
2023/06/03 01:26:52;;;;;;;2.92;1.70;;;;;;;19.73;46.84;102414.09;4982520;28;20046;-84
2023/06/03 01:29:17;;;;;;;1.85;1.40;;;;;;;19.95;46.79;102449.16;4968152;28;20110;-84
2023/06/03 01:31:43;;;;;;;1.50;1.38;;;;;;;19.91;46.64;102445.94;4971249;28;20026;-82
2023/06/03 01:34:09;;;;;;;3.40;1.70;;;;;;;19.89;46.89;102448.72;4985935;28;20041;-84
2023/06/03 01:36:35;;;;;;;2.42;1.58;;;;;;;19.91;46.96;102454.69;4977219;28;20081;-84
2023/06/03 01:39:03;;;;;;;1.50;1.40;;;;;;;19.81;46.81;102445.13;4980035;28;20066;-84
2023/06/03 01:41:31;;;;;;;2.20;1.60;;;;;;;19.90;46.79;102460.97;5009326;28;20049;-84
2023/06/03 01:43:57;;;;;;;2.38;1.40;;;;;;;19.84;46.85;102456.25;4982499;28;20026;-84
2023/06/03 01:46:23;;;;;;;2.35;1.38;;;;;;;19.91;46.88;102467.09;4981252;28;20038;-84
2023/06/03 01:48:50;;;;;;;2.45;1.73;;;;;;;19.92;46.81;102466.13;4973172;28;20060;-84
2023/06/03 01:51:15;;;;;;;1.30;1.20;;;;;;;19.90;46.70;102457.50;4993973;28;20042;-84
2023/06/03 01:53:41;;;;;;;1.55;1.33;;;;;;;19.79;46.81;102450.56;4983457;28;20094;-83
2023/06/03 01:56:07;;;;;;;1.73;1.60;;;;;;;19.79;46.97;102455.00;4965479;28;20488;-83
2023/06/03 01:58:32;;;;;;;1.85;1.30;;;;;;;19.84;46.79;102463.34;4986517;28;20057;-83
2023/06/03 02:00:58;;;;;;;2.60;1.30;;;;;;;19.86;46.76;102464.88;4983488;28;20034;-83
2023/06/03 02:03:23;;;;;;;2.80;1.65;;;;;;;19.80;47.04;102468.09;4988911;28;20129;-83
2023/06/03 02:05:49;;;;;;;1.45;1.35;;;;;;;19.78;46.78;102454.19;4966641;28;20044;-83
2023/06/03 02:08:16;;;;;;;2.70;1.60;;;;;;;19.84;46.90;102472.13;4987053;28;20048;-82
2023/06/03 02:10:42;;;;;;;2.40;1.67;;;;;;;19.72;46.98;102444.16;4989265;28;20107;-82
2023/06/03 02:13:07;;;;;;;1.92;1.60;;;;;;;19.82;46.81;102455.56;5020275;28;20042;-83
2023/06/03 02:15:33;;;;;;;2.78;1.33;;;;;;;19.82;47.04;102463.50;4988301;28;20029;-83
2023/06/03 02:17:59;;;;;;;2.55;1.25;;;;;;;19.76;46.76;102442.91;4988001;28;20041;-83
2023/06/03 02:20:25;;;;;;;1.73;1.50;;;;;;;19.77;46.88;102443.75;4987485;28;20046;-83
2023/06/03 02:22:51;;;;;;;1.55;1.38;;;;;;;19.78;46.95;102450.69;4984140;28;20043;-83
2023/06/03 02:25:17;;;;;;;2.03;1.40;;;;;;;19.79;46.86;102458.50;5001616;28;20043;-83
2023/06/03 02:27:43;;;;;;;1.88;1.23;;;;;;;19.75;46.82;102453.59;4981579;28;20030;-83
2023/06/03 02:30:11;;;;;;;2.35;1.33;;;;;;;19.83;46.93;102459.88;5000414;28;20036;-83
2023/06/03 02:32:37;;;;;;;2.22;1.70;;;;;;;19.62;46.95;102424.84;4996050;28;20121;-83
2023/06/03 02:35:02;;;;;;;1.85;1.50;;;;;;;19.77;46.90;102451.69;5003810;28;20038;-84
2023/06/03 02:37:30;;;;;;;1.48;1.35;;;;;;;19.85;46.85;102465.84;5015092;28;20501;-83
2023/06/03 02:39:56;;;;;;;1.52;1.23;;;;;;;19.80;46.66;102446.94;5000903;28;20050;-84
2023/06/03 02:42:22;;;;;;;2.40;1.77;;;;;;;19.77;46.77;102452.50;5001909;28;20082;-83
2023/06/03 02:44:48;;;;;;;2.28;1.42;;;;;;;19.75;46.96;102450.97;4983704;28;20045;-83
2023/06/03 02:47:14;;;;;;;1.48;1.23;;;;;;;19.75;46.88;102456.25;4970578;28;20036;-83
2023/06/03 02:49:40;;;;;;;1.40;1.30;;;;;;;19.78;47.01;102475.31;4986748;28;20447;-84
2023/06/03 02:52:07;;;;;;;2.17;1.45;;;;;;;19.71;46.81;102452.22;4967473;28;20034;-83
2023/06/03 02:54:33;;;;;;;1.90;1.40;;;;;;;19.82;46.80;102460.84;4992992;28;20064;-83
2023/06/03 02:56:59;;;;;;;2.00;1.33;;;;;;;19.76;46.93;102452.66;4982245;28;20072;-84
2023/06/03 02:59:24;;;;;;;1.80;1.33;;;;;;;19.72;46.72;102449.44;5001421;28;20046;-85
2023/06/03 03:01:50;;;;;;;1.52;1.20;;;;;;;19.70;46.87;102456.66;4967392;28;20045;-86
2023/06/03 03:04:15;;;;;;;2.05;1.50;;;;;;;19.80;46.90;102460.16;5002444;28;20060;-84
2023/06/03 03:06:41;;;;;;;1.90;1.10;;;;;;;19.69;46.96;102447.06;4983454;28;20038;-84
2023/06/03 03:09:07;;;;;;;2.85;1.65;;;;;;;19.69;46.93;102456.81;4997121;28;20038;-83
2023/06/03 03:11:41;;;;;;;1.33;1.10;;;;;;;19.79;46.89;102468.22;4987229;28;20073;-84
2023/06/03 03:14:07;;;;;;;1.42;1.10;;;;;;;19.74;46.91;102458.06;5002175;28;20037;-83
2023/06/03 03:16:35;;;;;;;1.55;1.30;;;;;;;19.70;46.80;102448.75;4987166;28;20043;-83
2023/06/03 03:19:02;;;;;;;1.30;1.20;;;;;;;19.72;46.87;102456.53;4970732;28;21275;-83
2023/06/03 03:21:28;;;;;;;1.17;0.90;;;;;;;19.71;46.93;102455.69;4985814;28;20044;-83
2023/06/03 03:23:55;;;;;;;2.70;1.42;;;;;;;19.71;46.81;102453.06;4989388;28;20092;-83
2023/06/03 03:26:24;;;;;;;1.95;1.20;;;;;;;19.60;46.83;102446.13;4969909;28;21547;-83
2023/06/03 03:28:52;;;;;;;1.63;1.40;;;;;;;19.65;46.84;102456.25;4991203;28;20087;-82
2023/06/03 03:31:20;;;;;;;1.70;1.20;;;;;;;19.78;46.74;102475.31;4966231;28;20040;-83
2023/06/03 03:33:50;;;;;;;1.17;1.10;;;;;;;19.78;46.84;102472.69;4985093;28;20620;-84
2023/06/03 03:36:22;;;;;;;1.65;1.30;;;;;;;19.73;46.67;102464.31;4991290;28;20042;-84
2023/06/03 03:39:03;;;;;;;1.65;1.30;;;;;;;19.73;46.75;102464.31;4981683;28;20030;-84
2023/06/03 03:41:32;;;;;;;1.33;1.23;;;;;;;19.73;46.83;102466.97;5002659;28;20037;-85
2023/06/03 03:43:58;;;;;;;2.33;1.02;;;;;;;19.68;46.62;102461.25;4998395;28;20034;-84
2023/06/03 03:46:24;;;;;;;1.33;1.15;;;;;;;19.76;46.79;102476.44;5017406;28;20030;-84
2023/06/03 03:48:50;;;;;;;3.20;1.67;;;;;;;19.62;46.69;102448.63;4984603;28;20111;-85
2023/06/03 03:51:17;;;;;;;1.92;1.67;;;;;;;19.79;46.74;102482.28;4977624;28;20061;-84
2023/06/03 03:53:45;;;;;;;1.17;1.02;;;;;;;19.76;46.79;102479.09;5018113;28;20038;-84
2023/06/03 03:56:18;;;;;;;1.33;1.02;;;;;;;19.60;46.81;102459.34;4998862;28;20097;-85
2023/06/03 03:58:48;;;;;;;2.08;1.20;;;;;;;19.46;46.82;102435.09;4981860;28;20055;-84
2023/06/03 04:01:23;;;;;;;1.42;1.33;;;;;;;19.53;47.11;102450.25;4970797;28;20042;-82
2023/06/03 04:03:56;;;;;;;1.95;1.23;;;;;;;19.47;46.74;102442.88;4983590;28;20033;-84
2023/06/03 04:06:35;;;;;;;1.30;1.08;;;;;;;19.65;46.73;102469.47;4969057;28;20590;-84
2023/06/03 04:09:01;;;;;;;1.30;1.20;;;;;;;19.75;46.45;102485.31;4981316;28;20409;-84
2023/06/03 04:11:28;;;;;;;1.20;1.10;;;;;;;19.74;46.75;102481.00;4967137;28;20053;-84
2023/06/03 04:13:57;;;;;;;2.63;1.20;;;;;;;19.66;46.73;102472.94;4985457;28;20042;-84
2023/06/03 04:16:27;;;;;;;;;;;;;;;19.74;46.73;102486.28;4965440;28;20030;-83
2023/06/03 04:18:54;;;;;;;1.40;1.30;;;;;;;19.66;46.71;102484.34;4966929;28;20305;-83
2023/06/03 04:21:20;;;;;;;1.13;1.02;;;;;;;19.54;46.61;102470.44;4982113;28;20042;-84
2023/06/03 04:23:46;;;;;;;1.50;1.15;;;;;;;19.65;46.68;102482.69;4996485;28;20038;-84
2023/06/03 04:26:17;;;;;;;1.10;1.00;;;;;;;19.70;46.80;102492.84;4962114;28;20675;-84
2023/06/03 04:28:43;;;;;;;2.03;1.20;;;;;;;19.57;46.72;102464.91;4977916;28;20445;-83
2023/06/03 04:31:08;;;;;;;1.73;1.40;;;;;;;19.69;46.64;102483.25;4993491;28;20043;-83
2023/06/03 04:33:34;;;;;;;2.10;1.30;;;;;;;19.49;46.88;102451.50;4947400;28;20037;-83
2023/06/03 04:36:00;;;;;;;1.35;0.93;;;;;;;19.68;46.64;102487.69;4964729;28;20042;-83
2023/06/03 04:38:28;;;;;;;1.40;1.15;;;;;;;19.59;46.70;102473.53;4963965;28;20061;-82
2023/06/03 04:40:54;;;;;;;2.33;1.20;;;;;;;19.70;46.75;102490.19;4966023;28;20129;-83
2023/06/03 04:43:20;;;;;;;1.83;1.23;;;;;;;19.62;46.55;102475.03;4964660;28;20454;-82
2023/06/03 04:45:49;;;;;;;2.08;1.33;;;;;;;19.72;46.62;102481.16;4965638;28;20042;-83
2023/06/03 04:48:16;;;;;;;1.80;1.30;;;;;;;19.64;46.50;102478.38;4967040;28;20101;-84
2023/06/03 04:50:44;;;;;;;1.70;1.33;;;;;;;19.68;46.54;102490.34;5000150;28;20030;-83
2023/06/03 04:53:13;;;;;;;1.95;1.40;;;;;;;19.67;46.65;102482.56;4982245;28;20048;-84
2023/06/03 04:55:43;;;;;;;1.67;1.30;;;;;;;19.60;46.64;102472.53;4980344;28;20756;-84
2023/06/03 04:58:11;;;;;;;2.25;1.33;;;;;;;19.71;46.50;102486.59;4965989;28;20102;-84
2023/06/03 05:00:37;;;;;;;1.75;1.20;;;;;;;19.68;46.39;102476.28;4998379;28;20038;-83
2023/06/03 05:03:09;;;;;;;1.80;1.20;;;;;;;19.63;46.76;102479.34;4954546;28;20068;-84
2023/06/03 05:05:41;;;;;;;1.40;1.13;;;;;;;19.66;46.57;102484.34;4979483;28;20034;-85
2023/06/03 05:08:09;;;;;;;1.63;0.93;;;;;;;19.71;46.84;102490.06;4995948;28;20026;-83
2023/06/03 05:10:35;;;;;;;1.42;1.30;;;;;;;19.60;46.39;102464.63;4985359;28;20030;-84
2023/06/03 05:13:08;;;;;;;1.20;1.10;;;;;;;19.67;46.48;102469.34;4983826;28;20066;-83
2023/06/03 05:15:35;;;;;;;1.55;1.08;;;;;;;19.76;46.46;102490.50;4978318;28;20026;-84
2023/06/03 05:18:01;;;;;;;1.90;1.23;;;;;;;19.71;46.23;102481.28;4988965;28;20053;-84
2023/06/03 05:20:28;;;;;;;1.88;1.20;;;;;;;19.67;46.48;102462.25;4965563;28;20182;-83
2023/06/03 05:22:54;;;;;;;1.38;0.88;;;;;;;19.68;46.32;102468.38;4984212;28;20082;-83
2023/06/03 05:25:20;;;;;;;1.92;1.40;;;;;;;19.84;46.13;102489.78;4968826;28;20065;-84
2023/06/03 05:27:46;;;;;;;1.38;1.15;;;;;;;19.77;46.30;102478.13;4979444;28;20027;-84
2023/06/03 05:30:12;;;;;;;1.45;1.25;;;;;;;19.78;46.19;102485.06;4986868;28;20030;-83
2023/06/03 05:32:40;;;;;;;1.10;0.95;;;;;;;19.79;46.12;102486.75;4967520;28;20045;-84
2023/06/03 05:35:07;;;;;;;1.70;1.15;;;;;;;19.67;46.26;102469.34;4989329;28;20113;-83
2023/06/03 05:37:33;;;;;;;1.58;1.20;;;;;;;19.70;46.22;102477.81;4952415;28;20057;-83
2023/06/03 05:39:59;;;;;;;1.52;1.30;;;;;;;19.86;46.06;102501.88;4984152;28;20042;-83
2023/06/03 05:42:25;;;;;;;2.03;1.38;;;;;;;19.78;46.21;102485.91;5004178;28;20046;-83
2023/06/03 05:44:51;;;;;;;1.25;0.90;;;;;;;19.85;46.33;102491.44;4954771;28;20038;-83
2023/06/03 05:47:16;;;;;;;1.13;1.00;;;;;;;19.90;45.96;102505.91;4980490;28;20037;-83
2023/06/03 05:49:43;;;;;;;2.50;1.23;;;;;;;19.91;46.08;102501.47;4967957;28;20045;-83
2023/06/03 05:52:09;;;;;;;2.22;1.33;;;;;;;19.79;45.91;102478.81;4967268;28;20074;-83
2023/06/03 05:54:36;;;;;;;1.35;1.20;;;;;;;19.92;46.08;102503.97;4953492;28;20092;-84
2023/06/03 05:57:01;;;;;;;1.35;1.15;;;;;;;19.87;45.92;102487.69;4972542;28;20030;-83
2023/06/03 05:59:32;;;;;;;1.25;1.15;;;;;;;19.86;45.89;102496.59;4988837;28;20082;-84
2023/06/03 06:01:58;;;;;;;1.17;0.90;;;;;;;19.87;45.89;102498.28;5003130;28;20048;-85
2023/06/03 06:04:24;;;;;;;1.70;1.33;;;;;;;19.77;45.83;102473.66;4968859;28;20089;-85
2023/06/03 06:06:50;;;;;;;1.45;1.15;;;;;;;19.85;45.97;102488.81;4986972;28;20034;-84
2023/06/03 06:09:16;;;;;;;2.95;1.40;;;;;;;19.79;45.88;102474.34;4956281;28;20073;-82
2023/06/03 06:11:42;;;;;;;1.63;1.23;;;;;;;19.85;45.84;102492.28;4966960;28;20029;-83
2023/06/03 06:14:08;;;;;;;2.08;1.45;;;;;;;19.91;45.69;102501.47;4995688;28;20510;-84
2023/06/03 06:16:34;;;;;;;1.38;1.02;;;;;;;19.82;45.93;102482.00;4982438;28;20026;-83
2023/06/03 06:19:00;;;;;;;1.10;1.00;;;;;;;19.88;45.68;102493.81;4984118;28;20065;-83
2023/06/03 06:21:28;;;;;;;1.77;1.25;;;;;;;19.97;45.79;102508.84;4968454;28;20136;-83
2023/06/03 06:23:54;;;;;;;1.80;1.30;;;;;;;19.95;45.69;102513.44;4985263;28;20044;-83
2023/06/03 06:26:21;;;;;;;1.45;1.20;;;;;;;19.95;45.59;102500.22;4982347;28;20097;-84
2023/06/03 06:28:49;;;;;;;1.00;0.90;;;;;;;20.02;45.63;102509.25;4985851;28;20038;-81
2023/06/03 06:31:18;;;;;;;2.28;1.42;;;;;;;19.97;45.64;102495.63;4993309;28;20052;-84
2023/06/03 06:33:48;;;;;;;0.98;0.93;;;;;;;20.02;45.58;102511.06;4966300;28;20049;-82
2023/06/03 06:36:30;;;;;;;1.52;0.98;;;;;;;20.08;45.54;102510.50;4982935;28;20076;-84
2023/06/03 06:38:57;;;;;;;2.58;1.30;;;;;;;20.09;45.46;102513.00;5010706;28;20045;-83
2023/06/03 06:41:26;;;;;;;2.47;1.38;;;;;;;20.09;45.32;102505.06;4984881;28;20026;-83
2023/06/03 06:43:53;;;;;;;1.88;1.23;;;;;;;20.04;45.30;102499.38;4984146;28;20437;-82
2023/06/03 06:46:19;;;;;;;1.77;1.10;;;;;;;20.16;45.25;102514.13;4982662;28;20045;-82
2023/06/03 06:48:45;;;;;;;1.52;1.25;;;;;;;20.15;45.20;102506.34;4979593;28;20026;-83
2023/06/03 06:51:12;;;;;;;2.78;1.40;;;;;;;20.17;45.20;102505.22;4980826;28;20060;-82
2023/06/03 06:53:48;;;;;;;1.67;1.30;;;;;;;20.15;44.85;102495.75;5001024;28;20049;-84
2023/06/03 06:56:16;;;;;;;2.13;1.20;;;;;;;20.22;44.86;102495.03;5013635;28;20038;-82
2023/06/03 06:58:49;;;;;;;1.95;1.08;;;;;;;20.26;44.72;102495.56;5000503;28;20050;-82
2023/06/03 07:01:15;;;;;;;1.60;1.33;;;;;;;20.44;44.87;102516.88;4986485;28;20049;-82
2023/06/03 07:03:44;;;;;;;1.20;0.95;;;;;;;20.13;44.78;102455.41;4971894;28;21289;-82
2023/06/03 07:06:10;;;;;;;1.35;1.05;;;;;;;20.38;44.61;102485.69;4986397;28;20097;-82
2023/06/03 07:08:37;;;;;;;2.03;1.23;;;;;;;20.49;44.52;102498.78;4990176;28;20084;-83
2023/06/03 07:11:04;;;;;;;1.73;1.20;;;;;;;20.45;44.41;102486.78;5002267;28;20065;-82
2023/06/03 07:13:38;;;;;;;1.17;1.08;;;;;;;20.55;44.46;102500.00;4988147;28;20087;-81
2023/06/03 07:16:05;;;;;;;1.05;0.90;;;;;;;20.64;44.35;102505.25;5004346;28;20054;-82
2023/06/03 07:18:33;;;;;;;1.38;1.27;;;;;;;20.67;44.18;102505.00;4947218;28;20154;-81
2023/06/03 07:20:59;;;;;;;1.98;1.23;;;;;;;20.68;44.46;102498.72;4992103;28;20038;-83
2023/06/03 07:23:27;;;;;;;2.45;1.55;;;;;;;20.70;44.48;102503.88;4998919;28;20041;-82
2023/06/03 07:25:55;;;;;;;1.38;1.13;;;;;;;20.75;44.51;102506.91;4979150;28;20107;-82
2023/06/03 07:28:33;;;;;;;1.20;1.10;;;;;;;20.54;44.29;102475.34;4989834;28;20053;-82
2023/06/03 07:31:08;;;;;;;1.30;1.20;;;;;;;20.79;43.87;102505.63;5025197;28;20033;-82
2023/06/03 07:33:51;;;;;;;2.88;1.70;;;;;;;20.86;44.29;102513.84;4986251;28;20102;-82
2023/06/03 07:36:22;;;;;;;3.35;1.40;;;;;;;20.94;44.04;102517.41;5003747;28;20491;-82
2023/06/03 07:39:10;;;;;;;1.23;0.90;;;;;;;20.71;43.96;102476.41;4984042;28;20065;-82
2023/06/03 07:41:43;;;;;;;1.40;0.98;;;;;;;20.95;44.17;102502.34;4983813;28;20228;-81
2023/06/03 07:44:25;;;;;;;1.05;0.93;;;;;;;20.99;43.93;102503.72;4982466;28;20041;-82
2023/06/03 07:46:57;;;;;;;1.10;1.00;;;;;;;21.04;44.10;102497.03;5014183;28;20124;-82
2023/06/03 07:49:23;;;;;;;1.20;1.10;;;;;;;21.08;43.99;102503.69;4978265;28;20042;-82
2023/06/03 07:51:51;;;;;;;1.15;1.00;;;;;;;21.16;43.85;102510.03;4981961;28;20042;-82
2023/06/03 07:54:18;;;;;;;1.80;1.35;;;;;;;20.84;43.77;102463.69;4980453;28;20034;-82
2023/06/03 07:56:45;;;;;;;1.10;1.00;;;;;;;21.25;43.99;102523.28;5003224;28;20068;-82
2023/06/03 07:59:14;;;;;;;0.85;0.85;;;;;;;21.16;43.44;102494.97;5007861;28;20451;-82
2023/06/03 08:01:40;;;;;;;2.78;1.15;;;;;;;21.21;43.63;102502.50;5012537;28;20128;-82
2023/06/03 08:04:27;;;;;;;1.95;1.10;;;;;;;21.18;43.53;102505.44;4997578;28;20045;-82
2023/06/03 08:06:53;;;;;;;3.65;1.20;;;;;;;21.21;43.85;102508.66;4998447;28;20492;-82
2023/06/03 08:09:26;;;;;;;0.88;0.88;;;;;;;21.27;43.59;102507.25;4981064;28;20072;-82
2023/06/03 08:11:51;;;;;;;1.23;1.13;;;;;;;20.91;43.51;102448.03;4982392;28;20081;-82
2023/06/03 08:14:20;;;;;;;1.10;1.10;;;;;;;21.18;43.96;102494.84;4999895;28;20038;-82
2023/06/03 08:16:45;;;;;;;2.08;0.98;;;;;;;21.24;43.43;102505.72;5016305;28;20033;-82
2023/06/03 08:19:12;;;;;;;3.55;1.40;;;;;;;21.23;43.91;102498.72;4983459;28;20053;-82
2023/06/03 08:21:38;;;;;;;1.48;0.95;;;;;;;20.95;44.17;102463.47;4995178;28;20124;-82
2023/06/03 08:24:04;;;;;;;1.88;1.25;;;;;;;21.17;43.90;102503.75;5001703;28;20042;-81
2023/06/03 08:26:29;;;;;;;3.20;1.20;;;;;;;21.10;43.92;102504.38;4962391;28;20045;-82
2023/06/03 08:28:55;;;;;;;1.25;1.13;;;;;;;21.08;43.95;102497.56;4963739;28;20026;-82
2023/06/03 08:31:20;;;;;;;1.02;0.90;;;;;;;21.04;44.12;102502.31;4999127;28;20116;-82
2023/06/03 08:33:46;;;;;;;4.78;1.25;;;;;;;20.96;43.87;102490.78;4984703;28;20061;-82
2023/06/03 08:36:12;;;;;;;1.38;1.05;;;;;;;20.62;43.70;102441.03;4981899;28;20046;-82
2023/06/03 08:38:40;;;;;;;1.90;1.40;;;;;;;20.85;43.95;102469.81;4981455;28;20065;-82
2023/06/03 08:41:06;;;;;;;1.27;0.98;;;;;;;21.00;44.16;102492.16;4994039;28;20392;-82
2023/06/03 08:43:43;;;;;;;0.98;0.88;;;;;;;21.06;43.66;102495.06;4998128;28;20057;-81
2023/06/03 08:46:23;;;;;;;1.30;1.15;;;;;;;21.05;43.71;102487.25;5003408;28;20613;-82
2023/06/03 08:49:03;;;;;;;0.93;0.82;;;;;;;21.03;44.00;102497.16;4994816;28;20036;-82
2023/06/03 08:51:36;;;;;;;0.98;0.95;;;;;;;21.13;43.83;102512.00;4995667;28;20049;-82
2023/06/03 08:54:17;;;;;;;1.20;1.10;;;;;;;21.02;43.84;102485.75;4980335;28;20042;-82
2023/06/03 08:56:53;;;;;;;2.65;1.50;;;;;;;21.10;43.68;102492.94;4988186;28;20037;-82
2023/06/03 08:59:23;;;;;;;2.95;1.20;;;;;;;21.13;43.73;102496.13;5013495;28;20491;-81
2023/06/03 09:01:54;;;;;;;1.20;1.05;;;;;;;21.09;43.63;102484.16;5015382;28;20099;-82
2023/06/03 09:04:21;;;;;;;1.33;1.20;;;;;;;21.15;43.81;102492.50;5017766;28;20040;-82
2023/06/03 09:06:47;;;;;;;1.30;1.20;;;;;;;21.12;43.67;102478.56;4998864;28;20044;-82
2023/06/03 09:09:14;;;;;;;1.40;1.13;;;;;;;21.21;43.53;102499.88;4982764;28;20129;-82
2023/06/03 09:11:42;;;;;;;1.95;1.27;;;;;;;21.20;43.70;102501.69;4999614;28;20044;-82
2023/06/03 09:14:08;;;;;;;1.95;1.25;;;;;;;21.28;43.64;102506.25;4984257;28;20044;-81
2023/06/03 09:16:35;;;;;;;2.00;1.30;;;;;;;21.19;43.64;102488.59;5012355;28;20053;-82
2023/06/03 09:19:01;;;;;;;1.48;1.00;;;;;;;21.27;43.45;102500.13;5000011;28;20042;-82
2023/06/03 09:21:27;;;;;;;1.50;1.20;;;;;;;21.29;43.44;102497.31;5015098;28;20045;-83
2023/06/03 09:23:52;;;;;;;1.20;1.10;;;;;;;21.00;43.38;102455.91;5001264;28;20034;-81
2023/06/03 09:26:18;;;;;;;1.20;1.10;;;;;;;21.04;43.85;102459.94;4984127;28;20044;-82
2023/06/03 09:28:47;;;;;;;1.73;1.63;;;;;;;21.22;43.42;102483.81;4979645;28;20018;-81
2023/06/03 09:31:13;;;;;;;2.13;1.20;;;;;;;21.32;43.70;102497.84;4977235;28;20568;-81
2023/06/03 09:33:40;;;;;;;1.88;1.15;;;;;;;21.24;43.62;102483.66;5001694;28;20080;-82
2023/06/03 09:36:11;;;;;;;1.67;1.20;;;;;;;21.30;43.43;102494.53;4975452;28;20073;-83
2023/06/03 09:38:54;;;;;;;1.08;1.00;;;;;;;21.34;43.38;102497.69;4998014;28;20595;-82
2023/06/03 09:41:27;;;;;;;1.50;1.30;;;;;;;21.10;43.66;102461.16;4982876;28;20041;-82
2023/06/03 09:43:57;;;;;;;1.33;1.23;;;;;;;21.35;43.50;102496.72;5015662;28;20040;-82
2023/06/03 09:46:23;;;;;;;;;;;;;;;21.35;43.54;102496.72;4983114;28;20804;-82
2023/06/03 09:48:49;;;;;;;1.00;0.82;;;;;;;21.23;43.65;102477.53;5002016;28;19941;-82
2023/06/03 09:51:14;;;;;;;1.40;0.82;;;;;;;21.31;43.34;102495.34;5002053;28;20041;-82
2023/06/03 09:53:40;;;;;;;1.75;1.30;;;;;;;21.25;43.56;102480.06;4985845;28;20380;-82
2023/06/03 09:56:26;;;;;;;1.60;1.02;;;;;;;21.23;43.45;102477.53;4998976;28;20049;-81
2023/06/03 09:59:17;;;;;;;1.45;0.85;;;;;;;21.25;43.52;102480.06;4982213;28;20089;-82
2023/06/03 10:01:47;;;;;;;1.38;1.10;;;;;;;21.16;43.37;102460.53;4991963;28;20034;-82
2023/06/03 10:04:38;;;;;;;0.77;0.77;;;;;;;21.34;43.56;102495.88;4983233;28;20045;-82
2023/06/03 10:07:11;;;;;;;1.17;1.00;;;;;;;21.33;43.40;102488.09;5019292;28;20130;-81
2023/06/03 10:09:47;;;;;;;1.25;1.10;;;;;;;21.29;43.41;102487.56;5013605;28;20346;-82
2023/06/03 10:12:28;;;;;;;1.17;0.82;;;;;;;21.21;43.52;102466.25;4984015;28;20038;-82
2023/06/03 10:14:55;;;;;;;1.20;0.95;;;;;;;21.26;43.50;102477.25;4984289;28;20040;-81
2023/06/03 10:17:21;;;;;;;1.92;0.82;;;;;;;21.17;43.75;102461.38;4985026;28;20065;-82
2023/06/03 10:19:47;;;;;;;1.05;0.82;;;;;;;21.16;43.33;102468.50;4983029;28;20037;-81
2023/06/03 10:22:17;;;;;;;0.93;0.88;;;;;;;21.22;43.43;102489.13;4983182;28;20034;-82
2023/06/03 10:24:45;;;;;;;1.92;1.38;;;;;;;21.29;43.41;102495.50;4996716;28;20038;-82
2023/06/03 10:27:12;;;;;;;2.22;1.08;;;;;;;21.31;43.42;102495.34;4985992;28;20034;-82
2023/06/03 10:29:38;;;;;;;1.10;0.90;;;;;;;21.31;43.68;102496.19;4985799;28;20072;-82
2023/06/03 10:32:08;;;;;;;1.27;1.17;;;;;;;21.23;43.49;102480.19;4998582;28;20124;-83
2023/06/03 10:34:42;;;;;;;2.10;0.90;;;;;;;21.26;43.71;102485.22;5016273;28;20491;-83
2023/06/03 10:37:09;;;;;;;1.27;1.00;;;;;;;21.31;43.60;102496.19;5001999;28;20108;-85
2023/06/03 10:39:35;;;;;;;1.75;1.00;;;;;;;21.21;43.69;102473.38;5014674;28;20142;-83
2023/06/03 10:42:05;;;;;;;1.45;0.90;;;;;;;21.30;43.33;102489.22;4982913;28;20022;-83
2023/06/03 10:44:32;;;;;;;1.52;0.88;;;;;;;21.19;43.71;102462.09;5015110;28;20117;-84
2023/06/03 10:47:15;;;;;;;1.23;0.85;;;;;;;21.31;43.44;102484.75;4996644;28;20038;-83
2023/06/03 10:49:47;;;;;;;4.93;1.30;;;;;;;21.26;43.40;102474.59;5011465;28;20060;-83
2023/06/03 10:53:06;;;;;;;1.52;0.95;;;;;;;21.31;43.67;102485.59;4997838;28;20034;-83
2023/06/03 10:55:50;;;;;;;1.35;1.15;;;;;;;21.30;43.39;102480.44;4940217;29;20044;-83
2023/06/03 10:58:23;;;;;;;1.70;1.10;;;;;;;21.14;43.54;102459.88;5008191;28;20137;-82
2023/06/03 11:01:00;;;;;;;1.65;1.15;;;;;;;21.29;43.63;102476.97;4994151;28;20312;-83
2023/06/03 11:03:31;;;;;;;1.50;1.15;;;;;;;21.26;43.41;102471.13;4997494;28;20042;-85
2023/06/03 11:06:18;;;;;;;1.70;1.30;;;;;;;21.29;43.52;102478.78;5002182;28;20029;-84
2023/06/03 11:09:05;;;;;;;1.13;0.90;;;;;;;21.24;43.40;102478.38;4998552;28;20034;-83
2023/06/03 11:11:44;;;;;;;1.08;0.95;;;;;;;21.29;43.44;102478.78;4982758;28;20480;-83
2023/06/03 11:14:40;;;;;;;2.17;1.17;;;;;;;21.26;43.65;102471.13;5010477;28;20049;-85
2023/06/03 11:17:06;;;;;;;1.08;0.98;;;;;;;21.28;43.83;102482.41;5015926;28;20045;-83
2023/06/03 11:19:54;;;;;;;3.13;1.10;;;;;;;21.17;43.46;102453.44;4979442;28;20156;-83
2023/06/03 11:22:29;;;;;;;1.02;0.85;;;;;;;21.28;43.51;102477.94;4998499;28;20045;-81
2023/06/03 11:24:59;;;;;;;1.42;1.17;;;;;;;21.16;43.48;102452.59;4981265;28;20042;-82
2023/06/03 11:27:26;;;;;;;1.25;0.95;;;;;;;21.25;43.59;102477.41;5008373;28;20472;-82
2023/06/03 11:29:56;;;;;;;1.63;1.20;;;;;;;21.26;43.80;102469.31;4983894;28;20044;-82
2023/06/03 11:32:28;;;;;;;1.90;1.20;;;;;;;21.22;43.38;102461.78;4979790;28;20038;-83
2023/06/03 11:35:02;;;;;;;1.45;1.17;;;;;;;21.28;43.87;102462.03;5001049;28;20121;-81